sensor_id;sensor_type;location;lat;lon;timestamp;P1;durP1;ratioP1;P2;durP2;ratioP2
74799;SDS011;63326;45.088;7.658;2022-12-07T00:01:58;7.40;;;2.80;;
74799;SDS011;63326;45.088;7.658;2022-12-07T00:04:17;5.85;;;2.67;;
74799;SDS011;63326;45.088;7.658;2022-12-07T00:06:45;12.05;;;2.90;;
74799;SDS011;63326;45.088;7.658;2022-12-07T00:09:14;5.55;;;2.42;;
74799;SDS011;63326;45.088;7.658;2022-12-07T00:11:43;6.05;;;2.53;;
74799;SDS011;63326;45.088;7.658;2022-12-07T00:14:11;5.57;;;2.45;;
74799;SDS011;63326;45.088;7.658;2022-12-07T00:16:39;5.30;;;2.20;;
74799;SDS011;63326;45.088;7.658;2022-12-07T00:19:06;5.15;;;2.60;;
74799;SDS011;63326;45.088;7.658;2022-12-07T00:21:33;9.20;;;2.90;;
74799;SDS011;63326;45.088;7.658;2022-12-07T00:24:01;5.20;;;2.63;;
74799;SDS011;63326;45.088;7.658;2022-12-07T00:26:33;6.43;;;2.33;;
74799;SDS011;63326;45.088;7.658;2022-12-07T00:29:12;7.28;;;2.55;;
74799;SDS011;63326;45.088;7.658;2022-12-07T00:31:43;5.07;;;2.50;;
74799;SDS011;63326;45.088;7.658;2022-12-07T00:34:14;6.80;;;2.50;;
74799;SDS011;63326;45.088;7.658;2022-12-07T00:36:41;4.68;;;2.13;;
74799;SDS011;63326;45.088;7.658;2022-12-07T00:39:08;4.88;;;2.80;;
74799;SDS011;63326;45.088;7.658;2022-12-07T00:41:34;6.38;;;2.53;;
74799;SDS011;63326;45.088;7.658;2022-12-07T00:44:01;5.28;;;2.53;;
74799;SDS011;63326;45.088;7.658;2022-12-07T00:46:28;5.97;;;2.42;;
74799;SDS011;63326;45.088;7.658;2022-12-07T00:48:55;7.32;;;3.10;;
74799;SDS011;63326;45.088;7.658;2022-12-07T00:51:22;6.80;;;3.20;;
74799;SDS011;63326;45.088;7.658;2022-12-07T00:53:50;6.55;;;2.65;;
74799;SDS011;63326;45.088;7.658;2022-12-07T00:56:18;4.93;;;2.20;;
74799;SDS011;63326;45.088;7.658;2022-12-07T00:58:51;7.78;;;2.33;;
74799;SDS011;63326;45.088;7.658;2022-12-07T01:01:22;5.50;;;2.17;;
74799;SDS011;63326;45.088;7.658;2022-12-07T01:03:49;5.88;;;2.50;;
74799;SDS011;63326;45.088;7.658;2022-12-07T01:06:17;8.20;;;3.13;;
74799;SDS011;63326;45.088;7.658;2022-12-07T01:08:44;7.40;;;3.08;;
74799;SDS011;63326;45.088;7.658;2022-12-07T01:11:13;5.57;;;2.60;;
74799;SDS011;63326;45.088;7.658;2022-12-07T01:13:41;5.93;;;3.10;;
74799;SDS011;63326;45.088;7.658;2022-12-07T01:16:09;6.47;;;2.30;;
74799;SDS011;63326;45.088;7.658;2022-12-07T01:18:37;7.05;;;2.72;;
74799;SDS011;63326;45.088;7.658;2022-12-07T01:38:43;5.65;;;2.33;;
74799;SDS011;63326;45.088;7.658;2022-12-07T01:41:11;5.50;;;2.67;;
74799;SDS011;63326;45.088;7.658;2022-12-07T01:44:07;5.03;;;2.28;;
74799;SDS011;63326;45.088;7.658;2022-12-07T01:46:33;6.30;;;2.58;;
74799;SDS011;63326;45.088;7.658;2022-12-07T01:49:00;4.80;;;2.85;;
74799;SDS011;63326;45.088;7.658;2022-12-07T01:51:28;6.22;;;3.20;;
74799;SDS011;63326;45.088;7.658;2022-12-07T01:53:54;5.55;;;2.58;;
74799;SDS011;63326;45.088;7.658;2022-12-07T01:56:23;5.95;;;2.70;;
74799;SDS011;63326;45.088;7.658;2022-12-07T01:58:51;5.60;;;2.25;;
74799;SDS011;63326;45.088;7.658;2022-12-07T02:01:19;5.85;;;1.90;;
74799;SDS011;63326;45.088;7.658;2022-12-07T02:03:46;5.78;;;2.63;;
74799;SDS011;63326;45.088;7.658;2022-12-07T02:06:13;6.75;;;2.78;;
74799;SDS011;63326;45.088;7.658;2022-12-07T02:08:43;5.57;;;2.38;;
74799;SDS011;63326;45.088;7.658;2022-12-07T02:11:09;5.78;;;2.72;;
74799;SDS011;63326;45.088;7.658;2022-12-07T02:13:37;4.93;;;2.28;;
74799;SDS011;63326;45.088;7.658;2022-12-07T02:19:05;6.28;;;2.30;;
74799;SDS011;63326;45.088;7.658;2022-12-07T02:21:42;4.13;;;2.17;;
74799;SDS011;63326;45.088;7.658;2022-12-07T02:26:55;5.00;;;2.03;;
74799;SDS011;63326;45.088;7.658;2022-12-07T02:32:32;5.80;;;2.42;;
74799;SDS011;63326;45.088;7.658;2022-12-07T02:35:05;5.63;;;2.42;;
74799;SDS011;63326;45.088;7.658;2022-12-07T02:40:34;5.18;;;2.13;;
74799;SDS011;63326;45.088;7.658;2022-12-07T02:43:04;5.40;;;2.42;;
74799;SDS011;63326;45.088;7.658;2022-12-07T02:45:34;5.18;;;2.25;;
74799;SDS011;63326;45.088;7.658;2022-12-07T02:48:02;5.13;;;2.13;;
74799;SDS011;63326;45.088;7.658;2022-12-07T02:50:30;5.55;;;2.88;;
74799;SDS011;63326;45.088;7.658;2022-12-07T02:52:56;7.43;;;3.45;;
74799;SDS011;63326;45.088;7.658;2022-12-07T02:55:25;5.50;;;2.55;;
74799;SDS011;63326;45.088;7.658;2022-12-07T02:58:05;6.63;;;2.85;;
74799;SDS011;63326;45.088;7.658;2022-12-07T03:00:37;6.35;;;2.20;;
74799;SDS011;63326;45.088;7.658;2022-12-07T03:03:18;5.63;;;2.25;;
74799;SDS011;63326;45.088;7.658;2022-12-07T03:13:26;7.72;;;3.10;;
74799;SDS011;63326;45.088;7.658;2022-12-07T03:18:52;7.00;;;2.72;;
74799;SDS011;63326;45.088;7.658;2022-12-07T03:21:25;5.05;;;2.97;;
74799;SDS011;63326;45.088;7.658;2022-12-07T03:23:58;6.47;;;2.65;;
74799;SDS011;63326;45.088;7.658;2022-12-07T03:26:36;7.50;;;3.72;;
74799;SDS011;63326;45.088;7.658;2022-12-07T03:29:07;6.50;;;2.35;;
74799;SDS011;63326;45.088;7.658;2022-12-07T03:31:45;6.70;;;2.83;;
74799;SDS011;63326;45.088;7.658;2022-12-07T03:34:19;5.88;;;2.38;;
74799;SDS011;63326;45.088;7.658;2022-12-07T03:36:52;6.65;;;3.10;;
74799;SDS011;63326;45.088;7.658;2022-12-07T03:39:26;7.45;;;2.97;;
74799;SDS011;63326;45.088;7.658;2022-12-07T03:41:55;5.10;;;2.92;;
74799;SDS011;63326;45.088;7.658;2022-12-07T03:44:23;5.45;;;2.45;;
74799;SDS011;63326;45.088;7.658;2022-12-07T03:49:43;6.75;;;2.83;;
74799;SDS011;63326;45.088;7.658;2022-12-07T03:52:21;5.28;;;2.10;;
74799;SDS011;63326;45.088;7.658;2022-12-07T03:57:54;7.63;;;3.08;;
74799;SDS011;63326;45.088;7.658;2022-12-07T04:00:23;6.32;;;2.70;;
74799;SDS011;63326;45.088;7.658;2022-12-07T04:02:53;5.57;;;2.47;;
74799;SDS011;63326;45.088;7.658;2022-12-07T04:05:20;7.18;;;3.08;;
74799;SDS011;63326;45.088;7.658;2022-12-07T04:07:46;6.53;;;2.88;;
74799;SDS011;63326;45.088;7.658;2022-12-07T04:10:13;7.43;;;3.08;;
74799;SDS011;63326;45.088;7.658;2022-12-07T04:12:40;6.30;;;2.97;;
74799;SDS011;63326;45.088;7.658;2022-12-07T04:15:06;6.75;;;2.83;;
74799;SDS011;63326;45.088;7.658;2022-12-07T04:17:34;6.18;;;2.70;;
74799;SDS011;63326;45.088;7.658;2022-12-07T04:20:00;6.57;;;3.00;;
74799;SDS011;63326;45.088;7.658;2022-12-07T04:22:27;5.30;;;2.88;;
74799;SDS011;63326;45.088;7.658;2022-12-07T04:24:54;5.97;;;2.80;;
74799;SDS011;63326;45.088;7.658;2022-12-07T04:27:20;4.85;;;2.65;;
74799;SDS011;63326;45.088;7.658;2022-12-07T04:29:47;6.05;;;2.70;;
74799;SDS011;63326;45.088;7.658;2022-12-07T04:32:13;5.00;;;2.33;;
74799;SDS011;63326;45.088;7.658;2022-12-07T04:34:40;5.55;;;2.28;;
74799;SDS011;63326;45.088;7.658;2022-12-07T04:37:07;8.77;;;2.97;;
74799;SDS011;63326;45.088;7.658;2022-12-07T04:39:33;6.65;;;2.92;;
74799;SDS011;63326;45.088;7.658;2022-12-07T04:42:00;8.10;;;3.70;;
74799;SDS011;63326;45.088;7.658;2022-12-07T04:44:27;7.72;;;2.58;;
74799;SDS011;63326;45.088;7.658;2022-12-07T04:46:54;9.18;;;3.17;;
74799;SDS011;63326;45.088;7.658;2022-12-07T04:49:21;4.72;;;2.28;;
74799;SDS011;63326;45.088;7.658;2022-12-07T04:51:48;5.50;;;2.78;;
74799;SDS011;63326;45.088;7.658;2022-12-07T04:54:16;7.50;;;2.60;;
74799;SDS011;63326;45.088;7.658;2022-12-07T04:56:43;6.43;;;2.95;;
74799;SDS011;63326;45.088;7.658;2022-12-07T04:59:10;6.28;;;3.28;;
74799;SDS011;63326;45.088;7.658;2022-12-07T05:01:37;6.10;;;3.25;;
74799;SDS011;63326;45.088;7.658;2022-12-07T05:04:04;6.82;;;2.40;;
74799;SDS011;63326;45.088;7.658;2022-12-07T05:06:31;6.78;;;3.13;;
74799;SDS011;63326;45.088;7.658;2022-12-07T05:08:58;6.93;;;3.03;;
74799;SDS011;63326;45.088;7.658;2022-12-07T05:11:24;5.80;;;2.63;;
74799;SDS011;63326;45.088;7.658;2022-12-07T05:14:19;6.63;;;2.72;;
74799;SDS011;63326;45.088;7.658;2022-12-07T05:16:47;7.15;;;2.88;;
74799;SDS011;63326;45.088;7.658;2022-12-07T05:19:17;8.93;;;4.15;;
74799;SDS011;63326;45.088;7.658;2022-12-07T05:21:45;10.52;;;3.80;;
74799;SDS011;63326;45.088;7.658;2022-12-07T05:24:12;15.63;;;5.13;;
74799;SDS011;63326;45.088;7.658;2022-12-07T05:26:40;17.20;;;6.05;;
74799;SDS011;63326;45.088;7.658;2022-12-07T05:29:07;13.48;;;5.40;;
74799;SDS011;63326;45.088;7.658;2022-12-07T05:31:34;18.17;;;6.07;;
74799;SDS011;63326;45.088;7.658;2022-12-07T05:34:01;14.40;;;6.25;;
74799;SDS011;63326;45.088;7.658;2022-12-07T05:36:27;14.32;;;5.13;;
74799;SDS011;63326;45.088;7.658;2022-12-07T05:38:55;13.07;;;5.45;;
74799;SDS011;63326;45.088;7.658;2022-12-07T05:41:21;12.30;;;4.65;;
74799;SDS011;63326;45.088;7.658;2022-12-07T05:44:06;13.07;;;5.25;;
74799;SDS011;63326;45.088;7.658;2022-12-07T05:46:33;15.43;;;5.43;;
74799;SDS011;63326;45.088;7.658;2022-12-07T05:49:00;9.98;;;4.20;;
74799;SDS011;63326;45.088;7.658;2022-12-07T05:51:27;10.20;;;4.15;;
74799;SDS011;63326;45.088;7.658;2022-12-07T05:53:53;15.05;;;5.13;;
74799;SDS011;63326;45.088;7.658;2022-12-07T05:56:20;12.40;;;4.80;;
74799;SDS011;63326;45.088;7.658;2022-12-07T05:58:47;9.60;;;4.03;;
74799;SDS011;63326;45.088;7.658;2022-12-07T06:01:32;12.40;;;4.93;;
74799;SDS011;63326;45.088;7.658;2022-12-07T06:03:58;9.70;;;5.22;;
74799;SDS011;63326;45.088;7.658;2022-12-07T06:06:25;11.50;;;3.85;;
74799;SDS011;63326;45.088;7.658;2022-12-07T06:08:52;12.70;;;4.00;;
74799;SDS011;63326;45.088;7.658;2022-12-07T06:11:18;12.18;;;4.63;;
74799;SDS011;63326;45.088;7.658;2022-12-07T06:14:03;16.48;;;4.55;;
74799;SDS011;63326;45.088;7.658;2022-12-07T06:16:30;12.18;;;4.80;;
74799;SDS011;63326;45.088;7.658;2022-12-07T06:18:56;9.73;;;4.43;;
74799;SDS011;63326;45.088;7.658;2022-12-07T06:21:24;9.55;;;4.80;;
74799;SDS011;63326;45.088;7.658;2022-12-07T06:23:53;12.02;;;5.38;;
74799;SDS011;63326;45.088;7.658;2022-12-07T06:26:19;12.73;;;4.13;;
74799;SDS011;63326;45.088;7.658;2022-12-07T06:28:46;12.82;;;4.40;;
74799;SDS011;63326;45.088;7.658;2022-12-07T06:31:13;13.02;;;4.30;;
74799;SDS011;63326;45.088;7.658;2022-12-07T06:33:40;12.93;;;4.20;;
74799;SDS011;63326;45.088;7.658;2022-12-07T06:36:07;11.77;;;5.03;;
74799;SDS011;63326;45.088;7.658;2022-12-07T06:38:33;13.90;;;5.03;;
74799;SDS011;63326;45.088;7.658;2022-12-07T06:41:00;12.65;;;4.40;;
74799;SDS011;63326;45.088;7.658;2022-12-07T06:43:27;12.18;;;4.15;;
74799;SDS011;63326;45.088;7.658;2022-12-07T06:45:53;12.52;;;5.00;;
74799;SDS011;63326;45.088;7.658;2022-12-07T06:48:20;9.60;;;4.30;;
74799;SDS011;63326;45.088;7.658;2022-12-07T06:50:47;12.48;;;5.20;;
74799;SDS011;63326;45.088;7.658;2022-12-07T06:53:20;12.25;;;3.97;;
74799;SDS011;63326;45.088;7.658;2022-12-07T06:55:47;11.95;;;4.82;;
74799;SDS011;63326;45.088;7.658;2022-12-07T06:58:13;10.60;;;4.53;;
74799;SDS011;63326;45.088;7.658;2022-12-07T07:00:40;11.98;;;4.13;;
74799;SDS011;63326;45.088;7.658;2022-12-07T07:03:06;11.48;;;4.82;;
74799;SDS011;63326;45.088;7.658;2022-12-07T07:05:33;8.45;;;4.03;;
74799;SDS011;63326;45.088;7.658;2022-12-07T07:07:59;13.93;;;4.88;;
74799;SDS011;63326;45.088;7.658;2022-12-07T07:10:46;12.80;;;4.78;;
74799;SDS011;63326;45.088;7.658;2022-12-07T07:13:13;8.43;;;4.28;;
74799;SDS011;63326;45.088;7.658;2022-12-07T07:15:39;10.90;;;4.22;;
74799;SDS011;63326;45.088;7.658;2022-12-07T07:18:06;8.68;;;3.97;;
74799;SDS011;63326;45.088;7.658;2022-12-07T07:20:33;12.15;;;4.10;;
74799;SDS011;63326;45.088;7.658;2022-12-07T07:23:00;10.82;;;4.50;;
74799;SDS011;63326;45.088;7.658;2022-12-07T07:25:27;11.07;;;3.88;;
74799;SDS011;63326;45.088;7.658;2022-12-07T07:27:54;11.38;;;4.80;;
74799;SDS011;63326;45.088;7.658;2022-12-07T07:30:20;12.07;;;4.13;;
74799;SDS011;63326;45.088;7.658;2022-12-07T07:32:47;12.15;;;4.50;;
74799;SDS011;63326;45.088;7.658;2022-12-07T07:35:13;14.07;;;7.05;;
74799;SDS011;63326;45.088;7.658;2022-12-07T07:40:29;12.95;;;5.20;;
74799;SDS011;63326;45.088;7.658;2022-12-07T07:42:56;12.93;;;4.60;;
74799;SDS011;63326;45.088;7.658;2022-12-07T07:45:24;13.60;;;5.40;;
74799;SDS011;63326;45.088;7.658;2022-12-07T07:47:51;13.02;;;4.75;;
74799;SDS011;63326;45.088;7.658;2022-12-07T07:50:18;9.35;;;4.78;;
74799;SDS011;63326;45.088;7.658;2022-12-07T07:52:45;11.05;;;4.40;;
74799;SDS011;63326;45.088;7.658;2022-12-07T07:55:12;11.00;;;4.10;;
74799;SDS011;63326;45.088;7.658;2022-12-07T07:57:39;12.27;;;4.70;;
74799;SDS011;63326;45.088;7.658;2022-12-07T08:00:07;7.55;;;3.42;;
74799;SDS011;63326;45.088;7.658;2022-12-07T08:02:38;9.55;;;4.40;;
74799;SDS011;63326;45.088;7.658;2022-12-07T08:05:06;9.13;;;3.40;;
74799;SDS011;63326;45.088;7.658;2022-12-07T08:07:33;11.40;;;4.35;;
74799;SDS011;63326;45.088;7.658;2022-12-07T08:09:59;10.07;;;3.92;;
74799;SDS011;63326;45.088;7.658;2022-12-07T08:12:27;12.85;;;5.63;;
74799;SDS011;63326;45.088;7.658;2022-12-07T08:14:53;12.75;;;5.57;;
74799;SDS011;63326;45.088;7.658;2022-12-07T08:17:20;11.32;;;4.63;;
74799;SDS011;63326;45.088;7.658;2022-12-07T08:19:47;11.45;;;4.22;;
74799;SDS011;63326;45.088;7.658;2022-12-07T08:22:13;10.00;;;4.68;;
74799;SDS011;63326;45.088;7.658;2022-12-07T08:24:40;10.38;;;4.35;;
74799;SDS011;63326;45.088;7.658;2022-12-07T08:27:07;11.23;;;5.80;;
74799;SDS011;63326;45.088;7.658;2022-12-07T08:29:33;11.02;;;4.85;;
74799;SDS011;63326;45.088;7.658;2022-12-07T08:32:00;8.82;;;4.75;;
74799;SDS011;63326;45.088;7.658;2022-12-07T08:34:34;9.57;;;4.32;;
74799;SDS011;63326;45.088;7.658;2022-12-07T08:37:02;14.95;;;4.97;;
74799;SDS011;63326;45.088;7.658;2022-12-07T08:39:28;11.63;;;5.20;;
74799;SDS011;63326;45.088;7.658;2022-12-07T08:41:57;9.57;;;4.38;;
74799;SDS011;63326;45.088;7.658;2022-12-07T08:44:24;9.80;;;3.95;;
74799;SDS011;63326;45.088;7.658;2022-12-07T08:46:52;12.27;;;5.15;;
74799;SDS011;63326;45.088;7.658;2022-12-07T08:49:24;10.23;;;3.83;;
74799;SDS011;63326;45.088;7.658;2022-12-07T08:51:54;10.95;;;5.20;;
74799;SDS011;63326;45.088;7.658;2022-12-07T08:54:27;9.07;;;4.32;;
74799;SDS011;63326;45.088;7.658;2022-12-07T08:56:55;12.77;;;4.20;;
74799;SDS011;63326;45.088;7.658;2022-12-07T08:59:25;10.02;;;3.92;;
74799;SDS011;63326;45.088;7.658;2022-12-07T09:01:53;9.88;;;4.35;;
74799;SDS011;63326;45.088;7.658;2022-12-07T09:04:20;10.52;;;3.75;;
74799;SDS011;63326;45.088;7.658;2022-12-07T09:06:47;8.80;;;4.10;;
74799;SDS011;63326;45.088;7.658;2022-12-07T09:09:14;10.38;;;3.72;;
74799;SDS011;63326;45.088;7.658;2022-12-07T09:11:41;7.93;;;3.40;;
74799;SDS011;63326;45.088;7.658;2022-12-07T09:14:08;8.27;;;4.43;;
74799;SDS011;63326;45.088;7.658;2022-12-07T09:16:35;9.55;;;3.67;;
74799;SDS011;63326;45.088;7.658;2022-12-07T09:19:02;10.82;;;4.13;;
74799;SDS011;63326;45.088;7.658;2022-12-07T09:21:29;9.57;;;4.30;;
74799;SDS011;63326;45.088;7.658;2022-12-07T09:23:56;8.40;;;3.72;;
74799;SDS011;63326;45.088;7.658;2022-12-07T09:26:23;8.77;;;3.42;;
74799;SDS011;63326;45.088;7.658;2022-12-07T09:28:49;8.65;;;3.63;;
74799;SDS011;63326;45.088;7.658;2022-12-07T09:31:16;9.93;;;4.47;;
74799;SDS011;63326;45.088;7.658;2022-12-07T09:33:58;8.63;;;3.72;;
74799;SDS011;63326;45.088;7.658;2022-12-07T09:36:26;10.40;;;4.05;;
74799;SDS011;63326;45.088;7.658;2022-12-07T09:38:54;7.20;;;3.50;;
74799;SDS011;63326;45.088;7.658;2022-12-07T09:41:21;8.45;;;3.78;;
74799;SDS011;63326;45.088;7.658;2022-12-07T09:43:49;8.13;;;3.67;;
74799;SDS011;63326;45.088;7.658;2022-12-07T09:46:16;12.32;;;4.47;;
74799;SDS011;63326;45.088;7.658;2022-12-07T09:48:45;9.65;;;3.70;;
74799;SDS011;63326;45.088;7.658;2022-12-07T09:51:22;9.77;;;4.00;;
74799;SDS011;63326;45.088;7.658;2022-12-07T09:53:52;8.55;;;3.85;;
74799;SDS011;63326;45.088;7.658;2022-12-07T09:56:20;8.13;;;4.05;;
74799;SDS011;63326;45.088;7.658;2022-12-07T09:58:47;8.63;;;3.45;;
74799;SDS011;63326;45.088;7.658;2022-12-07T10:06:18;8.63;;;3.55;;
74799;SDS011;63326;45.088;7.658;2022-12-07T10:08:45;10.70;;;4.00;;
74799;SDS011;63326;45.088;7.658;2022-12-07T10:11:12;9.38;;;4.72;;
74799;SDS011;63326;45.088;7.658;2022-12-07T10:18:52;8.70;;;4.30;;
74799;SDS011;63326;45.088;7.658;2022-12-07T10:21:20;8.98;;;3.88;;
74799;SDS011;63326;45.088;7.658;2022-12-07T10:26:34;8.55;;;4.45;;
74799;SDS011;63326;45.088;7.658;2022-12-07T10:29:24;8.68;;;4.43;;
74799;SDS011;63326;45.088;7.658;2022-12-07T10:31:55;9.18;;;4.38;;
74799;SDS011;63326;45.088;7.658;2022-12-07T10:34:26;8.07;;;4.25;;
74799;SDS011;63326;45.088;7.658;2022-12-07T10:39:44;8.10;;;3.67;;
74799;SDS011;63326;45.088;7.658;2022-12-07T10:44:46;8.82;;;3.88;;
74799;SDS011;63326;45.088;7.658;2022-12-07T10:58:03;9.25;;;4.00;;
74799;SDS011;63326;45.088;7.658;2022-12-07T11:03:24;8.32;;;3.10;;
74799;SDS011;63326;45.088;7.658;2022-12-07T11:11:26;7.82;;;3.70;;
74799;SDS011;63326;45.088;7.658;2022-12-07T11:16:57;6.90;;;3.45;;
74799;SDS011;63326;45.088;7.658;2022-12-07T11:22:23;7.25;;;2.58;;
74799;SDS011;63326;45.088;7.658;2022-12-07T11:24:59;7.93;;;3.85;;
74799;SDS011;63326;45.088;7.658;2022-12-07T11:30:03;8.23;;;4.00;;
74799;SDS011;63326;45.088;7.658;2022-12-07T11:36:25;7.53;;;3.05;;
74799;SDS011;63326;45.088;7.658;2022-12-07T11:38:49;6.60;;;3.30;;
74799;SDS011;63326;45.088;7.658;2022-12-07T11:41:31;7.60;;;3.47;;
74799;SDS011;63326;45.088;7.658;2022-12-07T11:46:49;6.68;;;3.35;;
74799;SDS011;63326;45.088;7.658;2022-12-07T11:49:33;6.45;;;3.58;;
74799;SDS011;63326;45.088;7.658;2022-12-07T11:52:10;8.07;;;3.63;;
74799;SDS011;63326;45.088;7.658;2022-12-07T11:54:43;7.88;;;4.38;;
74799;SDS011;63326;45.088;7.658;2022-12-07T11:57:18;6.47;;;3.58;;
74799;SDS011;63326;45.088;7.658;2022-12-07T11:59:59;8.07;;;3.75;;
74799;SDS011;63326;45.088;7.658;2022-12-07T12:02:42;7.18;;;3.72;;
74799;SDS011;63326;45.088;7.658;2022-12-07T12:05:17;8.23;;;3.17;;
74799;SDS011;63326;45.088;7.658;2022-12-07T12:07:46;9.68;;;4.18;;
74799;SDS011;63326;45.088;7.658;2022-12-07T12:10:41;8.65;;;3.58;;
74799;SDS011;63326;45.088;7.658;2022-12-07T12:13:21;6.38;;;3.45;;
74799;SDS011;63326;45.088;7.658;2022-12-07T12:21:56;11.95;;;5.57;;
74799;SDS011;63326;45.088;7.658;2022-12-07T12:24:29;8.55;;;4.00;;
74799;SDS011;63326;45.088;7.658;2022-12-07T12:42:58;8.82;;;4.00;;
74799;SDS011;63326;45.088;7.658;2022-12-07T12:45:31;9.93;;;4.50;;
74799;SDS011;63326;45.088;7.658;2022-12-07T12:50:36;7.53;;;3.30;;
74799;SDS011;63326;45.088;7.658;2022-12-07T13:00:44;9.10;;;4.00;;
74799;SDS011;63326;45.088;7.658;2022-12-07T13:08:51;6.43;;;3.50;;
74799;SDS011;63326;45.088;7.658;2022-12-07T13:11:20;8.18;;;3.88;;
74799;SDS011;63326;45.088;7.658;2022-12-07T13:16:41;10.27;;;3.92;;
74799;SDS011;63326;45.088;7.658;2022-12-07T13:24:59;9.50;;;4.22;;
74799;SDS011;63326;45.088;7.658;2022-12-07T13:27:34;9.43;;;3.92;;
74799;SDS011;63326;45.088;7.658;2022-12-07T13:30:07;11.43;;;4.75;;
74799;SDS011;63326;45.088;7.658;2022-12-07T13:32:39;7.50;;;3.63;;
74799;SDS011;63326;45.088;7.658;2022-12-07T13:37:55;8.98;;;3.28;;
74799;SDS011;63326;45.088;7.658;2022-12-07T13:40:22;6.25;;;3.10;;
74799;SDS011;63326;45.088;7.658;2022-12-07T13:42:57;7.00;;;3.30;;
74799;SDS011;63326;45.088;7.658;2022-12-07T13:45:28;6.47;;;3.92;;
74799;SDS011;63326;45.088;7.658;2022-12-07T13:51:14;7.78;;;3.20;;
74799;SDS011;63326;45.088;7.658;2022-12-07T13:53:48;8.70;;;4.28;;
74799;SDS011;63326;45.088;7.658;2022-12-07T13:56:22;8.15;;;3.65;;
74799;SDS011;63326;45.088;7.658;2022-12-07T13:58:55;8.05;;;3.63;;
74799;SDS011;63326;45.088;7.658;2022-12-07T14:01:22;7.38;;;3.78;;
74799;SDS011;63326;45.088;7.658;2022-12-07T14:03:49;8.73;;;3.38;;
74799;SDS011;63326;45.088;7.658;2022-12-07T14:09:08;8.38;;;4.28;;
74799;SDS011;63326;45.088;7.658;2022-12-07T14:11:43;6.60;;;3.63;;
74799;SDS011;63326;45.088;7.658;2022-12-07T14:14:10;10.02;;;3.72;;
74799;SDS011;63326;45.088;7.658;2022-12-07T14:16:40;12.18;;;3.65;;
74799;SDS011;63326;45.088;7.658;2022-12-07T14:19:38;8.30;;;3.45;;
74799;SDS011;63326;45.088;7.658;2022-12-07T14:22:33;10.02;;;3.47;;
74799;SDS011;63326;45.088;7.658;2022-12-07T14:25:18;7.15;;;3.30;;
74799;SDS011;63326;45.088;7.658;2022-12-07T14:27:48;10.23;;;3.58;;
74799;SDS011;63326;45.088;7.658;2022-12-07T14:30:17;11.13;;;4.38;;
74799;SDS011;63326;45.088;7.658;2022-12-07T14:32:44;7.70;;;3.83;;
74799;SDS011;63326;45.088;7.658;2022-12-07T14:35:15;8.38;;;4.07;;
74799;SDS011;63326;45.088;7.658;2022-12-07T14:37:43;9.18;;;3.85;;
74799;SDS011;63326;45.088;7.658;2022-12-07T14:40:16;10.15;;;3.97;;
74799;SDS011;63326;45.088;7.658;2022-12-07T14:42:44;10.50;;;3.30;;
74799;SDS011;63326;45.088;7.658;2022-12-07T14:45:13;12.60;;;4.43;;
74799;SDS011;63326;45.088;7.658;2022-12-07T14:47:43;10.07;;;3.83;;
74799;SDS011;63326;45.088;7.658;2022-12-07T14:50:32;11.68;;;4.38;;
74799;SDS011;63326;45.088;7.658;2022-12-07T14:53:14;12.60;;;4.25;;
74799;SDS011;63326;45.088;7.658;2022-12-07T14:55:49;10.82;;;5.80;;
74799;SDS011;63326;45.088;7.658;2022-12-07T14:58:16;10.38;;;4.25;;
74799;SDS011;63326;45.088;7.658;2022-12-07T15:00:44;8.80;;;3.63;;
74799;SDS011;63326;45.088;7.658;2022-12-07T15:03:11;10.50;;;3.88;;
74799;SDS011;63326;45.088;7.658;2022-12-07T15:05:43;9.25;;;3.97;;
74799;SDS011;63326;45.088;7.658;2022-12-07T15:08:11;10.52;;;4.90;;
74799;SDS011;63326;45.088;7.658;2022-12-07T15:15:52;9.30;;;3.85;;
74799;SDS011;63326;45.088;7.658;2022-12-07T15:18:19;10.25;;;4.35;;
74799;SDS011;63326;45.088;7.658;2022-12-07T15:23:14;8.82;;;3.88;;
74799;SDS011;63326;45.088;7.658;2022-12-07T15:25:45;10.18;;;4.28;;
74799;SDS011;63326;45.088;7.658;2022-12-07T15:28:13;12.73;;;5.47;;
74799;SDS011;63326;45.088;7.658;2022-12-07T15:30:43;9.40;;;4.32;;
74799;SDS011;63326;45.088;7.658;2022-12-07T15:33:11;10.95;;;4.05;;
74799;SDS011;63326;45.088;7.658;2022-12-07T15:35:41;13.02;;;4.68;;
74799;SDS011;63326;45.088;7.658;2022-12-07T15:38:09;9.55;;;4.90;;
74799;SDS011;63326;45.088;7.658;2022-12-07T15:40:36;10.32;;;4.60;;
74799;SDS011;63326;45.088;7.658;2022-12-07T15:43:03;14.02;;;4.88;;
74799;SDS011;63326;45.088;7.658;2022-12-07T15:45:30;11.27;;;4.60;;
74799;SDS011;63326;45.088;7.658;2022-12-07T15:47:56;9.45;;;3.67;;
74799;SDS011;63326;45.088;7.658;2022-12-07T15:50:43;10.85;;;4.32;;
74799;SDS011;63326;45.088;7.658;2022-12-07T15:53:10;9.43;;;3.75;;
74799;SDS011;63326;45.088;7.658;2022-12-07T15:55:38;7.38;;;4.28;;
74799;SDS011;63326;45.088;7.658;2022-12-07T15:58:05;10.85;;;4.57;;
74799;SDS011;63326;45.088;7.658;2022-12-07T16:00:32;7.53;;;3.53;;
74799;SDS011;63326;45.088;7.658;2022-12-07T16:02:59;9.23;;;4.57;;
74799;SDS011;63326;45.088;7.658;2022-12-07T16:05:26;11.45;;;4.30;;
74799;SDS011;63326;45.088;7.658;2022-12-07T16:07:53;8.05;;;3.60;;
74799;SDS011;63326;45.088;7.658;2022-12-07T16:10:19;6.78;;;2.92;;
74799;SDS011;63326;45.088;7.658;2022-12-07T16:12:46;8.73;;;3.92;;
74799;SDS011;63326;45.088;7.658;2022-12-07T16:15:12;9.98;;;3.72;;
74799;SDS011;63326;45.088;7.658;2022-12-07T16:17:39;10.27;;;4.32;;
74799;SDS011;63326;45.088;7.658;2022-12-07T16:20:06;10.88;;;2.65;;
74799;SDS011;63326;45.088;7.658;2022-12-07T16:27:29;7.50;;;3.05;;
74799;SDS011;63326;45.088;7.658;2022-12-07T16:29:55;9.05;;;3.33;;
74799;SDS011;63326;45.088;7.658;2022-12-07T16:32:22;7.85;;;3.20;;
74799;SDS011;63326;45.088;7.658;2022-12-07T16:34:48;8.38;;;4.07;;
74799;SDS011;63326;45.088;7.658;2022-12-07T16:37:15;13.68;;;4.82;;
74799;SDS011;63326;45.088;7.658;2022-12-07T16:39:41;12.90;;;6.25;;
74799;SDS011;63326;45.088;7.658;2022-12-07T16:42:08;14.57;;;5.82;;
74799;SDS011;63326;45.088;7.658;2022-12-07T16:44:35;13.52;;;6.93;;
74799;SDS011;63326;45.088;7.658;2022-12-07T16:47:01;10.05;;;5.35;;
74799;SDS011;63326;45.088;7.658;2022-12-07T16:49:28;11.68;;;5.43;;
74799;SDS011;63326;45.088;7.658;2022-12-07T16:51:55;9.90;;;4.40;;
74799;SDS011;63326;45.088;7.658;2022-12-07T16:54:41;8.05;;;3.72;;
74799;SDS011;63326;45.088;7.658;2022-12-07T16:57:08;12.05;;;4.75;;
74799;SDS011;63326;45.088;7.658;2022-12-07T16:59:34;8.68;;;4.55;;
74799;SDS011;63326;45.088;7.658;2022-12-07T17:02:01;8.43;;;3.63;;
74799;SDS011;63326;45.088;7.658;2022-12-07T17:04:28;10.80;;;4.93;;
74799;SDS011;63326;45.088;7.658;2022-12-07T17:06:55;7.82;;;3.53;;
74799;SDS011;63326;45.088;7.658;2022-12-07T17:09:21;8.43;;;4.70;;
74799;SDS011;63326;45.088;7.658;2022-12-07T17:11:47;8.88;;;3.83;;
74799;SDS011;63326;45.088;7.658;2022-12-07T17:14:14;11.30;;;3.58;;
74799;SDS011;63326;45.088;7.658;2022-12-07T17:16:59;10.07;;;3.80;;
74799;SDS011;63326;45.088;7.658;2022-12-07T17:19:26;7.43;;;4.00;;
74799;SDS011;63326;45.088;7.658;2022-12-07T17:21:52;8.98;;;3.63;;
74799;SDS011;63326;45.088;7.658;2022-12-07T17:24:19;6.35;;;2.60;;
74799;SDS011;63326;45.088;7.658;2022-12-07T17:26:45;12.30;;;4.75;;
74799;SDS011;63326;45.088;7.658;2022-12-07T17:29:13;8.95;;;3.97;;
74799;SDS011;63326;45.088;7.658;2022-12-07T17:31:41;7.80;;;4.22;;
74799;SDS011;63326;45.088;7.658;2022-12-07T17:34:16;7.18;;;3.20;;
74799;SDS011;63326;45.088;7.658;2022-12-07T17:36:43;10.25;;;3.40;;
74799;SDS011;63326;45.088;7.658;2022-12-07T17:39:12;7.50;;;3.65;;
74799;SDS011;63326;45.088;7.658;2022-12-07T17:41:40;9.02;;;4.13;;
74799;SDS011;63326;45.088;7.658;2022-12-07T17:44:26;8.63;;;3.15;;
74799;SDS011;63326;45.088;7.658;2022-12-07T17:46:53;9.10;;;3.40;;